Time;durP1;ratioP1;P1;durP2;ratioP2;P2;SDS_P1;SDS_P2;PMS_P1;PMS_P2;Temp;Humidity;BMP_temperature;BMP_pressure;BME280_temperature;BME280_humidity;BME280_pressure;Samples;Min_cycle;Max_cycle;Signal;HPM_P1;HPM_P2
2022/11/27 00:01:42;;;;;;;29.98;15.10;;;;;;;4.49;100.00;102442.06;5052320;28;20028;-57
2022/11/27 00:04:10;;;;;;;26.40;13.15;;;;;;;4.42;100.00;102418.53;5050700;28;20045;-57
2022/11/27 00:06:37;;;;;;;25.77;12.93;;;;;;;4.46;100.00;102431.56;5052238;28;20033;-57
2022/11/27 00:09:07;;;;;;;25.23;13.25;;;;;;;4.45;100.00;102418.91;5050941;28;20078;-57
2022/11/27 00:11:32;;;;;;;25.35;12.93;;;;;;;4.43;100.00;102426.53;5052230;28;20040;-57
2022/11/27 00:13:59;;;;;;;26.52;13.52;;;;;;;4.39;100.00;102417.09;5052242;28;20469;-57
2022/11/27 00:16:25;;;;;;;28.35;14.18;;;;;;;4.36;100.00;102423.00;5051819;28;20489;-57
2022/11/27 00:18:51;;;;;;;23.33;12.98;;;;;;;4.35;100.00;102424.06;5051799;28;20021;-57
2022/11/27 00:21:22;;;;;;;24.48;13.05;;;;;;;4.29;100.00;102409.38;5051489;28;20025;-57
2022/11/27 00:23:49;;;;;;;27.95;14.68;;;;;;;4.26;100.00;102411.72;5051706;28;20100;-57
2022/11/27 00:26:14;;;;;;;24.52;15.00;;;;;;;4.22;100.00;102414.94;5051571;28;20101;-57
2022/11/27 00:28:40;;;;;;;28.73;13.88;;;;;;;4.21;100.00;102409.66;5051813;28;20049;-57
2022/11/27 00:31:11;;;;;;;25.38;13.98;;;;;;;4.16;100.00;102406.75;5051580;28;20510;-57
2022/11/27 00:33:36;;;;;;;27.15;13.77;;;;;;;4.12;100.00;102406.38;5051506;28;20044;-57
2022/11/27 00:36:03;;;;;;;25.92;13.43;;;;;;;4.03;100.00;102404.97;5051140;28;20033;-57
2022/11/27 00:38:28;;;;;;;24.63;13.65;;;;;;;4.00;100.00;102398.06;5050025;28;20044;-57
2022/11/27 00:40:57;;;;;;;24.90;13.88;;;;;;;3.97;100.00;102383.97;5051280;28;20028;-57
2022/11/27 00:43:23;;;;;;;24.58;13.88;;;;;;;3.93;100.00;102378.09;5050878;28;20032;-58
2022/11/27 00:45:49;;;;;;;29.23;14.52;;;;;;;3.91;100.00;102388.44;5050780;28;20025;-57
2022/11/27 00:48:14;;;;;;;28.00;17.00;;;;;;;3.90;100.00;102376.63;5049450;28;20036;-57
2022/11/27 00:50:39;;;;;;;28.75;15.25;;;;;;;3.95;100.00;102386.91;5050972;28;20037;-57
2022/11/27 00:53:04;;;;;;;28.40;15.00;;;;;;;3.91;100.00;102396.66;5047994;28;20028;-57
2022/11/27 00:55:30;;;;;;;25.73;14.38;;;;;;;3.88;100.00;102386.13;5050057;28;20055;-56
2022/11/27 00:57:55;;;;;;;26.63;14.52;;;;;;;3.82;100.00;102382.38;5051082;28;20132;-57
2022/11/27 01:00:21;;;;;;;27.05;13.70;;;;;;;3.76;100.00;102380.56;5051038;28;20021;-57
2022/11/27 01:02:47;;;;;;;26.23;13.85;;;;;;;3.79;100.00;102379.25;5051189;28;20029;-57
2022/11/27 01:05:12;;;;;;;26.40;13.13;;;;;;;3.79;100.00;102366.41;5050778;28;20044;-57
2022/11/27 01:07:37;;;;;;;26.13;13.80;;;;;;;3.76;100.00;102372.34;5050820;28;20041;-57
2022/11/27 01:10:03;;;;;;;25.50;13.27;;;;;;;3.73;100.00;102376.34;5051055;28;20031;-57
2022/11/27 01:12:28;;;;;;;26.65;15.05;;;;;;;3.73;100.00;102368.13;5050966;28;20079;-57
2022/11/27 01:14:54;;;;;;;23.27;14.40;;;;;;;3.72;100.00;102360.16;5051002;28;20029;-57
2022/11/27 01:17:19;;;;;;;25.67;13.85;;;;;;;3.70;100.00;102354.91;5051112;28;20029;-56
2022/11/27 01:19:44;;;;;;;24.42;13.88;;;;;;;3.70;100.00;102346.69;5051023;28;20428;-58
2022/11/27 01:22:10;;;;;;;23.58;13.27;;;;;;;3.67;100.00;102347.13;5050951;28;20033;-57
2022/11/27 01:24:35;;;;;;;26.13;13.70;;;;;;;3.65;100.00;102343.78;5050863;28;20041;-57
2022/11/27 01:27:00;;;;;;;25.42;13.65;;;;;;;3.66;100.00;102344.63;5050666;28;20426;-57
2022/11/27 01:29:26;;;;;;;23.98;14.18;;;;;;;3.65;100.00;102342.94;5050955;28;20037;-57
2022/11/27 01:31:51;;;;;;;24.27;13.20;;;;;;;3.66;100.00;102353.66;5050927;28;20029;-57
2022/11/27 01:34:17;;;;;;;24.02;13.05;;;;;;;3.71;100.00;102353.00;5050818;28;20028;-57
2022/11/27 01:36:43;;;;;;;24.52;14.63;;;;;;;3.73;100.00;102338.00;5050826;28;20154;-57
2022/11/27 01:39:14;;;;;;;27.23;14.55;;;;;;;3.71;100.00;102329.22;5050811;28;20100;-57
2022/11/27 01:41:39;;;;;;;24.40;13.80;;;;;;;3.75;100.00;102329.59;5050725;28;20388;-57
2022/11/27 01:44:23;;;;;;;28.50;14.43;;;;;;;3.76;100.00;102328.53;5050727;28;20025;-57
2022/11/27 01:46:58;;;;;;;25.92;14.35;;;;;;;3.78;100.00;102325.56;5051633;28;20025;-57
2022/11/27 01:49:31;;;;;;;24.55;13.80;;;;;;;3.75;100.00;102333.16;5054549;28;20207;-57
2022/11/27 01:52:06;;;;;;;23.58;13.45;;;;;;;3.78;100.00;102329.13;5054552;28;20035;-57
2022/11/27 01:54:36;;;;;;;22.77;13.32;;;;;;;3.79;100.00;102325.34;5054553;28;20033;-57
2022/11/27 01:57:18;;;;;;;25.48;13.88;;;;;;;3.75;100.00;102316.75;5050683;28;20029;-57
2022/11/27 01:59:46;;;;;;;25.30;14.18;;;;;;;3.83;100.00;102312.88;5054423;28;20047;-58
2022/11/27 02:02:12;;;;;;;27.88;14.75;;;;;;;3.87;100.00;102305.06;5054450;28;20060;-57
2022/11/27 02:04:37;;;;;;;23.92;13.98;;;;;;;3.86;100.00;102297.91;5053965;28;20088;-58
2022/11/27 02:07:03;;;;;;;25.23;13.90;;;;;;;3.86;100.00;102281.47;5054420;28;20060;-57
2022/11/27 02:09:29;;;;;;;26.45;12.93;;;;;;;3.85;100.00;102277.06;5054415;28;20112;-57
2022/11/27 02:12:23;;;;;;;24.60;13.85;;;;;;;3.83;100.00;102277.31;5054160;28;20084;-57
2022/11/27 02:14:49;;;;;;;28.25;14.48;;;;;;;3.77;100.00;102267.25;5054112;28;20413;-57
2022/11/27 02:17:28;;;;;;;26.25;13.95;;;;;;;3.78;100.00;102259.88;5065286;22;20016;-54
2022/11/27 02:20:52;;;;;;;27.15;14.07;;;;;;;3.72;100.00;102253.41;5013967;28;20057;-54
2022/11/27 02:23:36;;;;;;;26.00;15.73;;;;;;;3.66;100.00;102255.13;4933675;29;20090;-54
2022/11/27 02:26:13;;;;;;;25.27;14.25;;;;;;;3.59;100.00;102244.25;4934069;29;20126;-53
2022/11/27 02:29:02;;;;;;;24.52;13.57;;;;;;;3.57;100.00;102238.19;4998158;28;20046;-53
2022/11/27 02:31:51;;;;;;;25.58;14.10;;;;;;;3.53;100.00;102242.41;5013895;28;20080;-55
2022/11/27 02:34:53;;;;;;;22.15;13.35;;;;;;;3.49;100.00;102243.94;5013739;28;20133;-54
2022/11/27 02:37:28;;;;;;;24.50;14.05;;;;;;;3.47;100.00;102243.31;5013571;28;20363;-55
2022/11/27 02:40:05;;;;;;;28.45;14.55;;;;;;;3.44;100.00;102241.03;5013281;28;20029;-56
2022/11/27 02:42:38;;;;;;;25.80;13.95;;;;;;;3.41;100.00;102244.19;5012574;28;20026;-56
2022/11/27 02:45:11;;;;;;;24.70;13.68;;;;;;;3.31;100.00;102225.56;5012181;28;20041;-54
2022/11/27 02:47:39;;;;;;;24.88;16.10;;;;;;;3.37;100.00;102230.13;5013329;28;20030;-54
2022/11/27 02:50:11;;;;;;;24.27;13.75;;;;;;;3.35;100.00;102228.69;5013223;28;20132;-54
2022/11/27 02:52:37;;;;;;;27.73;14.73;;;;;;;3.41;100.00;102236.84;5013430;28;20033;-54
2022/11/27 02:55:08;;;;;;;25.40;13.88;;;;;;;3.40;100.00;102226.94;5013117;28;20556;-54
2022/11/27 02:57:36;;;;;;;27.92;14.25;;;;;;;3.46;100.00;102235.31;5005641;28;20022;-54
2022/11/27 03:00:02;;;;;;;23.23;13.43;;;;;;;3.50;100.00;102233.81;5013118;28;20036;-54
2022/11/27 03:02:40;;;;;;;27.05;14.75;;;;;;;3.43;100.00;102212.84;5013334;28;20104;-55
2022/11/27 03:05:12;;;;;;;22.92;13.38;;;;;;;3.55;100.00;102225.75;5028482;28;20422;-54
2022/11/27 03:07:40;;;;;;;24.42;13.15;;;;;;;3.58;100.00;102239.00;5033068;28;20044;-53
2022/11/27 03:10:18;;;;;;;23.75;13.90;;;;;;;3.59;100.00;102243.41;5032891;28;20094;-54
2022/11/27 03:12:45;;;;;;;22.75;13.32;;;;;;;3.63;100.00;102241.06;5032663;28;20457;-55
2022/11/27 03:15:11;;;;;;;24.42;13.60;;;;;;;3.65;100.00;102237.03;5032824;28;20030;-56
2022/11/27 03:17:55;;;;;;;26.02;13.75;;;;;;;3.70;100.00;102233.63;5014429;28;20074;-59
2022/11/27 03:20:31;;;;;;;24.05;12.90;;;;;;;3.71;100.00;102219.72;5032504;28;20034;-54
2022/11/27 03:22:57;;;;;;;25.13;13.02;;;;;;;3.74;100.00;102215.69;5032236;28;20037;-54
2022/11/27 03:25:23;;;;;;;23.30;13.27;;;;;;;3.75;100.00;102217.38;5032113;28;20103;-55
2022/11/27 03:27:57;;;;;;;22.70;13.13;;;;;;;3.77;100.00;102215.25;5032671;28;20532;-56
2022/11/27 03:30:22;;;;;;;23.63;12.85;;;;;;;3.78;100.00;102207.88;5032469;28;20044;-54
2022/11/27 03:32:48;;;;;;;24.17;13.02;;;;;;;3.80;100.00;102217.50;5032123;28;20064;-53
2022/11/27 03:35:16;;;;;;;25.60;14.45;;;;;;;3.82;100.00;102220.03;5032265;28;20029;-53
2022/11/27 03:37:42;;;;;;;22.95;12.75;;;;;;;3.82;100.00;102214.56;5032278;28;20088;-54
2022/11/27 03:40:08;;;;;;;24.83;13.07;;;;;;;3.81;100.00;102213.72;5032232;28;20026;-54
2022/11/27 03:42:47;;;;;;;24.02;13.25;;;;;;;3.86;100.00;102219.38;5032326;28;20071;-54
2022/11/27 03:45:31;;;;;;;24.90;13.00;;;;;;;3.86;100.00;102210.31;5031902;28;20029;-54
2022/11/27 03:48:13;;;;;;;24.10;12.77;;;;;;;3.86;100.00;102211.16;5031762;28;20131;-54
2022/11/27 03:51:06;;;;;;;22.50;12.77;;;;;;;3.88;100.00;102206.25;5032011;28;20112;-54
2022/11/27 03:53:44;;;;;;;22.73;12.15;;;;;;;3.95;100.00;102194.41;5031908;28;20041;-55
2022/11/27 03:56:24;;;;;;;22.02;12.20;;;;;;;3.95;100.00;102191.69;5023695;28;20029;-53
2022/11/27 03:59:00;;;;;;;22.33;12.30;;;;;;;4.00;100.00;102200.88;5031671;28;20048;-54
2022/11/27 04:01:27;;;;;;;21.60;12.05;;;;;;;4.02;100.00;102186.97;5031610;28;20033;-53
2022/11/27 04:03:53;;;;;;;21.70;11.63;;;;;;;3.99;100.00;102182.78;5031535;28;20120;-54
2022/11/27 04:06:18;;;;;;;24.75;12.30;;;;;;;4.00;100.00;102202.78;5031330;28;20113;-56
2022/11/27 04:08:45;;;;;;;22.15;11.73;;;;;;;3.98;100.00;102186.59;5031108;28;20033;-56
2022/11/27 04:11:11;;;;;;;21.10;11.60;;;;;;;3.95;100.00;102195.25;5031315;28;20033;-56
2022/11/27 04:13:37;;;;;;;22.77;11.57;;;;;;;3.95;100.00;102186.22;4997339;28;20049;-57
2022/11/27 04:16:02;;;;;;;19.95;11.43;;;;;;;3.99;100.00;102201.09;5031246;28;20112;-56
2022/11/27 04:18:28;;;;;;;23.35;11.38;;;;;;;4.00;100.00;102194.56;5029830;28;20219;-55
2022/11/27 04:20:53;;;;;;;20.00;11.93;;;;;;;3.99;100.00;102191.00;5030521;28;20458;-56
2022/11/27 04:23:18;;;;;;;25.15;12.02;;;;;;;3.99;100.00;102201.09;5030997;28;20389;-55
2022/11/27 04:25:44;;;;;;;24.35;11.52;;;;;;;3.89;100.00;102191.50;5031075;28;20049;-55
2022/11/27 04:28:10;;;;;;;21.15;11.30;;;;;;;3.95;100.00;102214.41;5031142;28;20056;-55
2022/11/27 04:30:35;;;;;;;23.85;11.93;;;;;;;3.93;100.00;102211.06;5030857;28;20387;-55
2022/11/27 04:33:00;;;;;;;24.15;12.00;;;;;;;3.92;100.00;102208.56;5031071;28;20025;-58
2022/11/27 04:35:26;;;;;;;22.02;11.32;;;;;;;3.89;100.00;102204.38;5030534;28;20508;-56
2022/11/27 04:37:51;;;;;;;20.38;11.07;;;;;;;3.90;100.00;102211.53;5030498;28;20057;-55
2022/11/27 04:40:17;;;;;;;21.92;11.23;;;;;;;3.89;100.00;102202.47;5030778;28;20033;-55
2022/11/27 04:42:42;;;;;;;22.08;12.05;;;;;;;3.90;100.00;102203.31;5030835;28;20318;-57
2022/11/27 04:45:08;;;;;;;23.05;11.95;;;;;;;3.90;100.00;102206.06;5030758;28;20041;-56
2022/11/27 04:47:33;;;;;;;21.10;11.68;;;;;;;3.90;100.00;102203.31;5030930;28;20144;-57
2022/11/27 04:49:58;;;;;;;20.40;11.15;;;;;;;3.87;100.00;102198.28;5030861;28;20041;-56
2022/11/27 04:52:24;;;;;;;22.45;11.75;;;;;;;3.90;100.00;102203.31;5030819;28;20022;-57
2022/11/27 04:54:49;;;;;;;23.17;11.65;;;;;;;3.90;100.00;102198.66;5030771;28;20036;-55
2022/11/27 04:57:14;;;;;;;22.33;10.60;;;;;;;3.86;100.00;102188.41;5026623;28;20021;-56
2022/11/27 04:59:40;;;;;;;19.92;10.63;;;;;;;3.89;100.00;102179.75;5030783;28;20030;-54
2022/11/27 05:02:05;;;;;;;22.05;10.88;;;;;;;3.90;100.00;102170.47;5030438;28;20385;-57
2022/11/27 05:04:31;;;;;;;21.70;11.25;;;;;;;3.86;100.00;102164.59;5030595;28;20030;-56
2022/11/27 05:06:56;;;;;;;22.05;11.93;;;;;;;3.85;100.00;102153.88;5030578;28;20492;-56
2022/11/27 05:09:22;;;;;;;21.85;11.18;;;;;;;3.87;100.00;102166.25;5030612;28;20180;-57
2022/11/27 05:11:47;;;;;;;19.05;10.60;;;;;;;3.86;100.00;102164.59;5030699;28;20029;-56
2022/11/27 05:14:25;;;;;;;23.13;10.90;;;;;;;3.89;100.00;102157.84;5030585;28;20063;-54
2022/11/27 05:16:53;;;;;;;21.20;11.00;;;;;;;3.85;100.00;102149.25;5030807;28;20090;-57
2022/11/27 05:19:21;;;;;;;19.98;11.10;;;;;;;3.87;100.00;102130.66;5030292;28;20053;-57
2022/11/27 05:21:47;;;;;;;21.27;11.15;;;;;;;3.92;100.00;102148.31;5015317;28;20128;-57
2022/11/27 05:24:14;;;;;;;21.00;10.70;;;;;;;3.90;100.00;102143.09;5034612;28;20053;-57
2022/11/27 05:26:41;;;;;;;21.52;10.98;;;;;;;3.92;100.00;102143.66;5034646;28;20018;-56
2022/11/27 05:29:08;;;;;;;22.02;12.32;;;;;;;3.86;100.00;102128.16;5034629;28;20033;-55
2022/11/27 05:31:33;;;;;;;20.83;10.68;;;;;;;3.93;100.00;102141.78;5034529;28;20033;-57
2022/11/27 05:33:58;;;;;;;21.77;11.07;;;;;;;3.94;100.00;102133.31;5034494;28;20102;-56
2022/11/27 05:36:24;;;;;;;22.75;11.32;;;;;;;3.94;100.00;102129.75;5034473;28;20112;-56
2022/11/27 05:38:49;;;;;;;19.33;11.15;;;;;;;4.01;100.00;102130.50;5034434;28;20056;-57
2022/11/27 05:41:15;;;;;;;21.02;11.20;;;;;;;3.99;100.00;102119.81;5034329;28;20040;-55
2022/11/27 05:43:40;;;;;;;22.38;11.50;;;;;;;3.98;100.00;102122.75;5034303;28;20111;-55
2022/11/27 05:46:07;;;;;;;22.15;11.30;;;;;;;3.97;100.00;102124.66;5034076;28;20497;-55
2022/11/27 05:48:34;;;;;;;19.48;10.85;;;;;;;3.96;100.00;102119.44;5034110;28;20045;-55
2022/11/27 05:51:00;;;;;;;20.70;10.68;;;;;;;4.00;100.00;102112.41;5034184;28;20478;-56
2022/11/27 05:53:25;;;;;;;21.88;11.70;;;;;;;3.99;100.00;102111.59;5034003;28;20047;-55
2022/11/27 05:55:51;;;;;;;23.73;11.18;;;;;;;4.02;100.00;102105.63;5031414;28;20438;-54
2022/11/27 05:58:16;;;;;;;21.75;11.30;;;;;;;4.03;100.00;102112.78;5032767;28;20033;-56
2022/11/27 06:00:41;;;;;;;20.33;10.57;;;;;;;4.06;100.00;102111.50;5033839;28;20033;-57
2022/11/27 06:03:06;;;;;;;21.55;10.77;;;;;;;4.08;100.00;102105.78;5033883;28;20034;-57
2022/11/27 06:05:32;;;;;;;23.15;11.07;;;;;;;4.08;100.00;102103.03;5015730;28;20048;-55
2022/11/27 06:07:57;;;;;;;19.50;10.77;;;;;;;4.11;100.00;102097.13;5015616;28;20095;-57
2022/11/27 06:10:22;;;;;;;18.92;10.80;;;;;;;4.08;100.00;102089.34;5032495;28;20080;-56
2022/11/27 06:12:48;;;;;;;21.13;10.40;;;;;;;4.16;100.00;102095.31;5032952;28;20116;-55
2022/11/27 06:15:13;;;;;;;21.45;11.20;;;;;;;4.18;100.00;102093.19;5033541;28;20088;-57
2022/11/27 06:17:38;;;;;;;22.52;11.88;;;;;;;4.19;100.00;102094.88;5033083;28;20056;-55
2022/11/27 06:20:04;;;;;;;20.58;11.43;;;;;;;4.23;100.00;102092.50;5032326;28;20033;-54
2022/11/27 06:22:30;;;;;;;18.05;10.75;;;;;;;4.22;100.00;102088.94;5030663;28;20536;-54
2022/11/27 06:24:55;;;;;;;20.02;10.90;;;;;;;4.24;100.00;102088.69;5030215;28;20052;-53
2022/11/27 06:27:20;;;;;;;21.02;10.55;;;;;;;4.25;100.00;102086.81;5029898;28;20032;-54
2022/11/27 06:29:46;;;;;;;20.98;11.18;;;;;;;4.26;100.00;102085.72;5029811;28;20056;-54
2022/11/27 06:32:11;;;;;;;22.52;11.38;;;;;;;4.24;100.00;102079.66;5030488;28;20436;-54
2022/11/27 06:34:36;;;;;;;18.95;10.77;;;;;;;4.24;100.00;102085.97;5031889;28;20536;-55
2022/11/27 06:37:01;;;;;;;20.35;10.80;;;;;;;4.25;100.00;102081.31;5031984;28;20064;-55
2022/11/27 06:39:27;;;;;;;19.75;11.05;;;;;;;4.26;100.00;102085.72;5013673;28;20547;-54
2022/11/27 06:41:52;;;;;;;20.63;11.23;;;;;;;4.28;100.00;102092.66;5031562;28;20095;-54
2022/11/27 06:44:17;;;;;;;19.98;11.27;;;;;;;4.31;100.00;102092.16;5031517;28;20037;-57
2022/11/27 06:46:43;;;;;;;23.30;11.23;;;;;;;4.31;100.00;102092.16;5031049;28;20342;-54
2022/11/27 06:49:08;;;;;;;20.67;11.20;;;;;;;4.34;100.00;102091.72;5013282;28;20033;-56
2022/11/27 06:51:33;;;;;;;21.25;11.10;;;;;;;4.34;100.00;102086.22;5023799;28;20610;-56
2022/11/27 06:54:00;;;;;;;21.42;10.88;;;;;;;4.37;100.00;102076.69;5031209;28;20033;-55
2022/11/27 06:56:28;;;;;;;20.33;11.40;;;;;;;4.37;100.00;102084.91;5013342;28;20074;-56
2022/11/27 06:58:55;;;;;;;20.27;11.07;;;;;;;4.41;100.00;102083.41;5023972;28;20121;-55
2022/11/27 07:01:23;;;;;;;21.80;11.77;;;;;;;4.36;100.00;102069.53;5009783;28;20117;-56
2022/11/27 07:03:48;;;;;;;22.08;11.52;;;;;;;4.45;100.00;102072.78;5010903;28;20025;-57
2022/11/27 07:06:17;;;;;;;22.42;11.13;;;;;;;4.41;100.00;102077.91;5010951;28;20464;-55
2022/11/27 07:08:42;;;;;;;24.63;11.50;;;;;;;4.43;100.00;102072.19;5010976;28;20034;-55
2022/11/27 07:11:11;;;;;;;21.23;11.73;;;;;;;4.36;100.00;102058.59;5010768;28;20018;-55
2022/11/27 07:13:37;;;;;;;21.70;11.80;;;;;;;4.44;100.00;102066.47;5011194;28;20026;-56
2022/11/27 07:16:05;;;;;;;23.13;12.30;;;;;;;4.38;100.00;102048.22;5010782;28;20026;-57
2022/11/27 07:18:37;;;;;;;22.95;12.40;;;;;;;4.34;100.00;102042.41;5010479;28;20042;-56
2022/11/27 07:21:02;;;;;;;25.58;12.38;;;;;;;4.41;100.00;102049.66;5010786;28;20473;-56
2022/11/27 07:23:27;;;;;;;23.75;12.85;;;;;;;4.41;100.00;102041.44;5010652;28;20037;-55
2022/11/27 07:25:53;;;;;;;21.73;13.23;;;;;;;4.40;100.00;102040.63;5010433;28;20393;-55
2022/11/27 07:28:18;;;;;;;22.80;13.02;;;;;;;4.43;100.00;102040.16;5010459;28;20064;-56
2022/11/27 07:30:43;;;;;;;22.27;12.38;;;;;;;4.44;100.00;102039.06;5007897;28;20022;-56
2022/11/27 07:33:09;;;;;;;25.98;12.80;;;;;;;4.39;100.00;102030.72;5009370;28;20025;-56
2022/11/27 07:35:34;;;;;;;24.90;13.20;;;;;;;4.45;100.00;102032.50;5011913;28;20040;-55
2022/11/27 07:37:59;;;;;;;24.15;13.70;;;;;;;4.46;100.00;102033.38;5010890;28;20449;-54
2022/11/27 07:40:25;;;;;;;23.15;13.32;;;;;;;4.43;100.00;102022.88;5011522;28;20423;-56
2022/11/27 07:42:50;;;;;;;24.00;13.25;;;;;;;4.44;100.00;102030.03;5011124;28;20029;-55
2022/11/27 07:45:15;;;;;;;22.15;13.00;;;;;;;4.46;100.00;102022.41;5010004;28;20025;-56
2022/11/27 07:47:40;;;;;;;22.33;14.38;;;;;;;4.47;100.00;102019.41;5003915;28;20030;-55
2022/11/27 07:50:07;;;;;;;25.98;14.60;;;;;;;4.50;100.00;102015.38;5011499;28;20040;-56
2022/11/27 07:52:36;;;;;;;22.70;13.50;;;;;;;4.50;100.00;102018.97;5011452;28;20018;-57
2022/11/27 07:55:02;;;;;;;23.13;13.88;;;;;;;4.49;100.00;102005.47;5011313;28;20025;-55
2022/11/27 07:57:27;;;;;;;24.95;13.93;;;;;;;4.47;100.00;102000.25;5011170;28;20026;-55
2022/11/27 07:59:53;;;;;;;24.02;13.50;;;;;;;4.47;100.00;102004.91;5011280;28;20057;-58
2022/11/27 08:02:18;;;;;;;24.83;14.57;;;;;;;4.47;100.00;101992.03;5011428;28;20486;-57
2022/11/27 08:04:43;;;;;;;22.02;13.63;;;;;;;4.49;100.00;101987.13;5010952;28;20428;-55
2022/11/27 08:07:09;;;;;;;24.70;15.15;;;;;;;4.45;100.00;101974.97;5011095;28;20498;-55
2022/11/27 08:09:34;;;;;;;25.08;14.35;;;;;;;4.48;100.00;101979.16;5010864;28;20034;-54
2022/11/27 08:11:59;;;;;;;23.45;14.07;;;;;;;4.53;100.00;101973.78;5010560;28;20454;-56
2022/11/27 08:14:25;;;;;;;24.02;14.30;;;;;;;4.51;100.00;101975.94;5010409;28;20108;-56
2022/11/27 08:16:50;;;;;;;24.75;14.13;;;;;;;4.47;100.00;101964.63;5010858;28;20060;-56
2022/11/27 08:19:15;;;;;;;25.92;14.65;;;;;;;4.47;100.00;101966.53;5010159;28;20065;-56
2022/11/27 08:21:41;;;;;;;24.50;13.77;;;;;;;4.50;100.00;101974.25;5010883;28;20084;-55
2022/11/27 08:24:06;;;;;;;23.75;13.80;;;;;;;4.50;100.00;101975.13;5010067;28;20367;-56
2022/11/27 08:26:32;;;;;;;25.17;14.32;;;;;;;4.56;100.00;101977.97;5010205;28;20037;-56
2022/11/27 08:28:57;;;;;;;22.38;12.90;;;;;;;4.57;100.00;101969.53;5010314;28;20021;-57
2022/11/27 08:31:23;;;;;;;23.95;13.70;;;;;;;4.60;100.00;101968.19;5010797;28;20044;-57
2022/11/27 08:33:48;;;;;;;26.05;14.25;;;;;;;4.61;100.00;101962.47;5010549;28;20351;-55
2022/11/27 08:36:14;;;;;;;24.85;13.38;;;;;;;4.68;100.00;101962.34;5010785;28;20357;-57
2022/11/27 08:38:39;;;;;;;24.77;14.13;;;;;;;4.65;100.00;101962.81;5010777;28;20401;-55
2022/11/27 08:41:06;;;;;;;23.02;13.43;;;;;;;4.67;100.00;101958.81;5009184;28;20022;-57
2022/11/27 08:43:32;;;;;;;24.73;13.75;;;;;;;4.75;100.00;101954.03;5005013;28;20026;-56
2022/11/27 08:45:58;;;;;;;23.30;14.32;;;;;;;4.80;100.00;101960.47;5010943;28;20508;-57
2022/11/27 08:48:24;;;;;;;24.80;13.70;;;;;;;4.83;100.00;101970.91;5010633;28;20073;-57
2022/11/27 08:50:50;;;;;;;25.50;14.50;;;;;;;4.82;100.00;101974.72;5011026;28;20084;-57
2022/11/27 08:53:17;;;;;;;23.30;13.65;;;;;;;4.82;100.00;101960.22;5011023;28;20037;-57
2022/11/27 08:55:44;;;;;;;22.88;13.77;;;;;;;4.86;100.00;101969.63;5010601;28;20041;-57
2022/11/27 08:58:09;;;;;;;24.75;13.90;;;;;;;4.84;100.00;101969.84;5010590;28;20034;-57
2022/11/27 09:00:36;;;;;;;25.48;14.30;;;;;;;4.83;100.00;101968.19;4992563;28;20041;-56
2022/11/27 09:03:02;;;;;;;22.92;13.90;;;;;;;4.86;100.00;101966.88;5010775;28;20109;-56
2022/11/27 09:05:28;;;;;;;26.10;13.85;;;;;;;4.87;100.00;101974.00;5010622;28;20118;-57
2022/11/27 09:07:55;;;;;;;22.38;13.57;;;;;;;4.90;100.00;101965.31;5010706;28;20050;-55
2022/11/27 09:10:21;;;;;;;24.80;14.15;;;;;;;4.93;100.00;101969.47;5010620;28;20033;-55
2022/11/27 09:12:48;;;;;;;25.45;15.15;;;;;;;4.89;100.00;101955.41;5010723;28;20466;-58
2022/11/27 09:15:13;;;;;;;23.75;14.75;;;;;;;5.00;100.00;101970.22;5010385;28;20034;-55
2022/11/27 09:17:39;;;;;;;25.25;15.02;;;;;;;5.02;100.00;101969.97;5009905;28;20468;-56
2022/11/27 09:20:05;;;;;;;26.10;14.60;;;;;;;5.03;100.00;101968.88;5010560;28;20074;-57
2022/11/27 09:22:32;;;;;;;22.20;14.18;;;;;;;5.06;100.00;101962.91;5010072;28;20109;-57
2022/11/27 09:24:58;;;;;;;24.60;13.93;;;;;;;5.07;100.00;101970.91;5009972;28;20036;-55
2022/11/27 09:27:23;;;;;;;23.52;14.00;;;;;;;5.08;100.00;101961.59;5010300;28;20108;-56
2022/11/27 09:29:48;;;;;;;22.42;13.27;;;;;;;5.13;100.00;101967.19;5010719;28;20018;-57
2022/11/27 09:32:14;;;;;;;25.00;14.13;;;;;;;5.17;100.00;101964.78;5010465;28;20018;-57
2022/11/27 09:34:40;;;;;;;22.88;14.27;;;;;;;5.21;100.00;101970.63;5010466;28;20053;-57
2022/11/27 09:37:05;;;;;;;23.10;14.07;;;;;;;5.22;100.00;101964.06;5003226;28;20035;-56
2022/11/27 09:39:32;;;;;;;25.58;14.52;;;;;;;5.21;100.00;101966.00;5010197;28;20058;-56
2022/11/27 09:42:00;;;;;;;25.55;14.52;;;;;;;5.21;100.00;101968.72;5010518;28;20037;-55
2022/11/27 09:44:56;;;;;;;23.40;14.07;;;;;;;5.24;100.00;101962.75;5009998;28;20152;-55
2022/11/27 09:47:40;;;;;;;23.75;14.40;;;;;;;5.30;100.00;101960.94;5010447;28;20071;-58
2022/11/27 09:50:28;;;;;;;23.20;13.80;;;;;;;5.31;100.00;101965.34;5010080;28;20057;-56
2022/11/27 09:52:58;;;;;;;24.17;14.93;;;;;;;5.30;100.00;101964.53;5010668;28;20131;-56
2022/11/27 09:55:40;;;;;;;24.83;15.10;;;;;;;5.32;100.00;101953.31;5009700;28;20034;-55
2022/11/27 09:58:16;;;;;;;27.30;16.05;;;;;;;5.40;100.00;101963.88;5009428;28;20121;-55
2022/11/27 10:00:43;;;;;;;24.27;13.45;;;;;;;5.43;100.00;101957.09;5008684;28;20026;-56
2022/11/27 10:03:26;;;;;;;22.73;13.75;;;;;;;5.46;100.00;101945.63;5009473;28;20080;-56
2022/11/27 10:06:27;;;;;;;24.83;13.75;;;;;;;5.50;100.00;101945.94;5009197;28;20076;-56
2022/11/27 10:09:14;;;;;;;23.13;13.30;;;;;;;5.52;100.00;101936.44;5012234;28;20029;-58
2022/11/27 10:12:10;;;;;;;24.15;13.82;;;;;;;5.54;100.00;101928.75;5013029;28;20520;-56
2022/11/27 10:15:06;;;;;;;24.45;13.77;;;;;;;5.60;100.00;101922.28;5013577;28;20049;-57
2022/11/27 10:17:39;;;;;;;25.42;13.50;;;;;;;5.56;100.00;101918.38;5029202;28;20042;-55
2022/11/27 10:20:29;;;;;;;25.23;15.20;;;;;;;5.61;100.00;101912.13;5032582;28;20110;-56
2022/11/27 10:23:04;;;;;;;24.83;14.05;;;;;;;5.63;100.00;101909.97;5032920;28;20029;-59
2022/11/27 10:25:39;;;;;;;24.17;14.38;;;;;;;5.67;100.00;101908.41;5033096;28;20116;-56
2022/11/27 10:28:30;;;;;;;22.92;14.50;;;;;;;5.63;100.00;101888.84;5033105;28;20057;-55
2022/11/27 10:31:03;;;;;;;22.75;14.23;;;;;;;5.71;100.00;101898.59;5032953;28;20025;-57
2022/11/27 10:33:44;;;;;;;24.40;14.33;;;;;;;5.76;100.00;101892.38;5006975;28;20128;-56
2022/11/27 10:36:35;;;;;;;24.42;13.70;;;;;;;5.81;100.00;101894.38;5032489;28;20604;-57
2022/11/27 10:39:03;;;;;;;23.35;13.90;;;;;;;5.77;100.00;101891.28;5032896;28;20095;-57
2022/11/27 10:41:50;;;;;;;25.45;15.48;;;;;;;5.81;100.00;101886.94;5031852;28;20033;-56
2022/11/27 10:44:24;;;;;;;26.05;13.93;;;;;;;5.80;100.00;101882.56;5032788;28;20033;-58
2022/11/27 10:46:53;;;;;;;23.65;14.38;;;;;;;5.77;100.00;101881.13;5033045;28;20040;-59
2022/11/27 10:49:18;;;;;;;24.40;14.43;;;;;;;5.78;100.00;101877.28;5033059;28;20033;-57
2022/11/27 10:51:43;;;;;;;24.33;14.02;;;;;;;5.74;100.00;101867.91;5033154;28;20037;-57
2022/11/27 10:54:35;;;;;;;25.35;14.65;;;;;;;5.83;100.00;101868.31;5029861;28;20026;-57
2022/11/27 10:57:33;;;;;;;25.90;14.75;;;;;;;5.81;100.00;101855.91;5012308;28;20045;-56
2022/11/27 11:00:21;;;;;;;24.75;14.60;;;;;;;5.86;100.00;101854.09;5012439;28;20029;-58
2022/11/27 11:02:48;;;;;;;26.00;16.10;;;;;;;5.86;100.00;101856.84;4995000;28;20378;-58
2022/11/27 11:05:25;;;;;;;24.33;15.40;;;;;;;5.86;100.00;101834.03;5013317;28;20030;-57
2022/11/27 11:08:04;;;;;;;28.08;15.15;;;;;;;5.93;100.00;101849.25;5013253;28;20026;-57
2022/11/27 11:10:48;;;;;;;24.77;14.50;;;;;;;5.88;100.00;101840.94;5012874;28;20041;-58
2022/11/27 11:13:26;;;;;;;23.65;14.20;;;;;;;5.93;100.00;101842.94;5013132;28;20034;-58
2022/11/27 11:15:56;;;;;;;22.83;14.23;;;;;;;5.97;100.00;101841.34;5012817;28;20030;-56
2022/11/27 11:18:29;;;;;;;25.40;15.30;;;;;;;5.94;100.00;101831.69;4994950;28;20231;-58
2022/11/27 11:20:57;;;;;;;24.02;14.85;;;;;;;5.92;100.00;101830.28;5012923;28;20030;-57